createdAt,value
2022-09-20T00:01:17.301Z,11.90
2022-09-20T00:03:45.073Z,11.80
2022-09-20T00:06:16.181Z,11.80
2022-09-20T00:08:43.072Z,11.70
2022-09-20T00:11:10.811Z,11.60
2022-09-20T00:13:38.626Z,11.60
2022-09-20T00:16:06.541Z,11.70
2022-09-20T00:18:33.539Z,11.70
2022-09-20T00:21:00.214Z,11.80
2022-09-20T00:23:26.842Z,11.60
2022-09-20T00:25:58.506Z,11.50
2022-09-20T00:28:25.696Z,11.60
2022-09-20T00:30:53.163Z,11.70
2022-09-20T00:33:22.074Z,11.60
2022-09-20T00:35:49.226Z,11.40
2022-09-20T00:38:16.328Z,11.30
2022-09-20T00:40:44.272Z,11.20
2022-09-20T00:43:30.964Z,11.10
2022-09-20T00:45:57.740Z,10.90
2022-09-20T00:48:28.752Z,10.80
2022-09-20T00:50:59.497Z,10.70
2022-09-20T00:53:32.040Z,10.70
2022-09-20T00:56:03.911Z,10.60
2022-09-20T00:58:32.381Z,10.60
2022-09-20T01:00:59.794Z,10.60
2022-09-20T01:03:31.436Z,10.60
2022-09-20T01:05:59.599Z,10.70
2022-09-20T01:08:27.323Z,10.70
2022-09-20T01:10:55.312Z,10.70
2022-09-20T01:13:23.061Z,10.70
2022-09-20T01:15:50.428Z,10.60
2022-09-20T01:18:19.177Z,10.50
2022-09-20T01:20:46.999Z,10.40
2022-09-20T01:23:22.783Z,10.20
2022-09-20T01:26:04.484Z,10.20
2022-09-20T01:28:31.476Z,10.20
2022-09-20T01:31:05.124Z,10.20
2022-09-20T01:33:35.080Z,10.10
2022-09-20T01:36:04.459Z,10.10
2022-09-20T01:38:39.948Z,10.10
2022-09-20T01:41:12.332Z,10.10
2022-09-20T01:43:51.213Z,10.10
2022-09-20T01:46:38.402Z,10.00
2022-09-20T01:49:06.037Z,9.90
2022-09-20T01:52:02.957Z,9.90
2022-09-20T01:54:52.249Z,9.80
2022-09-20T01:57:46.096Z,9.80
2022-09-20T02:00:18.717Z,9.80
2022-09-20T02:02:57.571Z,9.80
2022-09-20T02:05:27.105Z,9.80
2022-09-20T02:08:03.191Z,9.80
2022-09-20T02:10:41.080Z,9.90
2022-09-20T02:13:29.144Z,9.90
2022-09-20T02:16:12.210Z,10.00
2022-09-20T02:18:48.771Z,10.10
2022-09-20T02:21:34.349Z,10.20
2022-09-20T02:24:07.348Z,10.20
2022-09-20T02:26:46.293Z,10.40
2022-09-20T02:29:31.689Z,10.50
2022-09-20T02:32:04.240Z,10.60
2022-09-20T02:34:43.054Z,10.50
2022-09-20T02:37:12.608Z,10.30
2022-09-20T02:39:42.472Z,10.20
2022-09-20T02:42:17.292Z,10.10
2022-09-20T02:44:48.073Z,10.10
2022-09-20T02:47:33.149Z,10.10
2022-09-20T02:50:10.976Z,10.10
2022-09-20T02:52:57.515Z,10.30
2022-09-20T02:55:43.012Z,10.30
2022-09-20T02:58:23.913Z,10.30
2022-09-20T03:01:13.097Z,10.20
2022-09-20T03:03:46.028Z,10.20
2022-09-20T03:06:20.101Z,10.20
2022-09-20T03:09:07.228Z,10.20
2022-09-20T03:12:00.647Z,10.40
2022-09-20T03:14:37.963Z,10.50
2022-09-20T03:17:11.489Z,10.60
2022-09-20T03:19:57.077Z,10.60
2022-09-20T03:22:49.702Z,10.60
2022-09-20T03:25:16.622Z,10.60
2022-09-20T03:28:02.021Z,10.30
2022-09-20T03:30:31.654Z,10.20
2022-09-20T03:33:10.055Z,10.30
2022-09-20T03:35:56.346Z,10.20
2022-09-20T03:38:23.046Z,10.20
2022-09-20T03:40:59.078Z,10.10
2022-09-20T03:43:44.522Z,10.00
2022-09-20T03:46:17.689Z,10.00
2022-09-20T03:48:48.508Z,10.00
2022-09-20T03:51:23.698Z,9.90
2022-09-20T03:53:56.529Z,9.90
2022-09-20T03:56:32.637Z,10.00
2022-09-20T03:59:02.167Z,10.00
2022-09-20T04:01:55.305Z,10.00
2022-09-20T04:04:22.017Z,10.10
2022-09-20T04:07:01.204Z,10.10
2022-09-20T04:09:36.975Z,10.00
2022-09-20T04:12:22.871Z,10.10
2022-09-20T04:15:03.552Z,10.10
2022-09-20T04:17:37.138Z,10.10
2022-09-20T04:20:07.515Z,10.00
2022-09-20T04:22:34.789Z,10.00
2022-09-20T04:25:04.853Z,9.90
2022-09-20T04:27:40.792Z,9.80
2022-09-20T04:30:29.518Z,9.70
2022-09-20T04:33:01.932Z,9.80
2022-09-20T04:35:57.554Z,9.80
2022-09-20T04:38:24.852Z,9.90
2022-09-20T04:41:03.941Z,9.70
2022-09-20T04:43:52.153Z,9.80
2022-09-20T04:46:21.991Z,9.70
2022-09-20T04:49:07.337Z,9.80
2022-09-20T04:51:45.694Z,9.90
2022-09-20T04:54:19.036Z,9.90
2022-09-20T04:56:55.962Z,9.90
2022-09-20T04:59:35.244Z,10.00
2022-09-20T05:02:14.257Z,9.90
2022-09-20T05:04:44.339Z,9.80
2022-09-20T05:07:11.645Z,9.60
2022-09-20T05:09:55.139Z,9.60
2022-09-20T05:12:25.777Z,9.50
2022-09-20T05:14:55.575Z,9.60
2022-09-20T05:17:22.324Z,9.70
2022-09-20T05:20:17.084Z,9.70
2022-09-20T05:23:02.510Z,9.60
2022-09-20T05:25:41.648Z,9.70
2022-09-20T05:28:09.546Z,9.90
2022-09-20T05:30:46.862Z,10.00
2022-09-20T05:33:35.477Z,9.80
2022-09-20T05:36:11.865Z,9.80
2022-09-20T05:38:43.976Z,9.90
2022-09-20T05:41:24.389Z,9.80
2022-09-20T05:44:12.683Z,9.70
2022-09-20T05:46:53.623Z,9.80
2022-09-20T05:49:22.990Z,9.70
2022-09-20T05:51:52.884Z,9.80
2022-09-20T05:54:32.632Z,10.00
2022-09-20T05:56:59.140Z,9.90
2022-09-20T05:59:49.329Z,9.90
2022-09-20T06:02:19.079Z,9.90
2022-09-20T06:04:52.999Z,9.80
2022-09-20T06:07:39.306Z,9.80
2022-09-20T06:10:17.425Z,9.90
2022-09-20T06:12:46.813Z,10.00
2022-09-20T06:15:21.481Z,10.00
2022-09-20T06:17:53.111Z,10.10
2022-09-20T06:20:19.805Z,10.20
2022-09-20T06:22:51.469Z,10.30
2022-09-20T06:25:33.266Z,10.30
2022-09-20T06:28:06.621Z,10.40
2022-09-20T06:30:35.165Z,10.40
2022-09-20T06:33:07.807Z,10.40
2022-09-20T06:35:40.068Z,10.40
2022-09-20T06:38:45.655Z,10.40
2022-09-20T06:41:30.987Z,10.50
2022-09-20T06:44:01.040Z,10.60
2022-09-20T06:46:28.868Z,10.90
2022-09-20T06:48:56.212Z,11.60
2022-09-20T06:51:23.902Z,12.70
2022-09-20T06:53:50.608Z,14.50
2022-09-20T06:56:19.544Z,16.00
2022-09-20T06:58:46.625Z,17.50
2022-09-20T07:01:13.776Z,19.50
2022-09-20T07:03:40.881Z,20.90
2022-09-20T07:06:08.609Z,21.20
2022-09-20T07:08:35.572Z,22.30
2022-09-20T07:11:06.130Z,23.30
2022-09-20T07:13:32.714Z,24.70
2022-09-20T07:16:17.413Z,25.10
2022-09-20T07:18:44.062Z,25.40
2022-09-20T07:21:14.465Z,24.40
2022-09-20T07:23:41.266Z,23.20
2022-09-20T07:26:16.316Z,21.70
2022-09-20T07:28:42.853Z,20.80
2022-09-20T07:31:09.438Z,20.20
2022-09-20T07:33:36.100Z,19.30
2022-09-20T07:36:02.972Z,18.30
2022-09-20T07:38:29.540Z,17.60
2022-09-20T07:40:57.617Z,17.30
2022-09-20T07:43:24.986Z,16.70
2022-09-20T07:45:55.977Z,16.40
2022-09-20T07:48:25.813Z,16.80
2022-09-20T07:50:56.170Z,18.50
2022-09-20T07:53:23.600Z,20.90
2022-09-20T07:56:00.460Z,22.80
2022-09-20T07:58:28.017Z,23.10
2022-09-20T08:00:55.428Z,22.70
2022-09-20T08:03:22.481Z,24.40
2022-09-20T08:05:50.193Z,26.00
2022-09-20T08:08:17.736Z,26.00
2022-09-20T08:10:46.137Z,26.90
2022-09-20T08:16:04.139Z,28.30
2022-09-20T08:18:31.148Z,28.40
2022-09-20T08:21:06.236Z,29.90
2022-09-20T08:23:36.298Z,31.10
2022-09-20T08:26:03.551Z,32.70
2022-09-20T08:28:31.405Z,33.40
2022-09-20T08:31:13.060Z,33.50
2022-09-20T08:33:40.060Z,34.60
2022-09-20T08:36:07.341Z,35.30
2022-09-20T08:41:39.016Z,36.70
2022-09-20T08:44:05.596Z,36.10
2022-09-20T08:46:35.683Z,36.60
2022-09-20T08:49:03.945Z,36.60
2022-09-20T08:51:33.263Z,37.20
2022-09-20T08:54:00.577Z,37.00
2022-09-20T08:56:31.449Z,37.30
2022-09-20T08:58:59.996Z,38.00
2022-09-20T09:01:28.629Z,38.30
2022-09-20T09:03:58.919Z,37.70
2022-09-20T09:06:25.472Z,37.90
2022-09-20T09:08:59.592Z,38.50
2022-09-20T09:11:26.544Z,36.90
2022-09-20T09:14:27.098Z,37.20
2022-09-20T09:16:54.629Z,37.00
2022-09-20T09:19:36.300Z,37.40
2022-09-20T09:22:04.707Z,38.20
2022-09-20T09:24:31.486Z,35.50
2022-09-20T09:27:09.466Z,31.80
2022-09-20T09:29:36.075Z,29.00
2022-09-20T09:32:20.018Z,27.60
2022-09-20T09:34:46.674Z,26.20
2022-09-20T09:37:28.887Z,23.90
2022-09-20T09:40:12.019Z,22.10
2022-09-20T09:42:48.333Z,19.80
2022-09-20T09:45:28.258Z,18.10
2022-09-20T09:47:55.687Z,17.50
2022-09-20T09:50:28.011Z,16.90
2022-09-20T09:53:09.400Z,16.80
2022-09-20T09:55:52.735Z,16.60
2022-09-20T09:58:34.852Z,16.50
2022-09-20T10:01:02.431Z,16.40
2022-09-20T10:03:41.482Z,16.50
2022-09-20T10:06:10.773Z,16.50
2022-09-20T10:08:46.507Z,16.70
2022-09-20T10:11:22.240Z,18.20
2022-09-20T10:14:07.754Z,21.60
2022-09-20T10:16:53.257Z,23.10
2022-09-20T10:19:38.521Z,24.40
2022-09-20T10:22:09.948Z,26.70
2022-09-20T10:24:55.277Z,25.60
2022-09-20T10:27:30.772Z,24.50
2022-09-20T10:30:00.416Z,22.70
2022-09-20T10:32:39.500Z,21.50
2022-09-20T10:35:14.148Z,20.90
2022-09-20T10:37:59.631Z,20.20
2022-09-20T10:40:54.004Z,20.10
2022-09-20T10:43:41.842Z,19.40
2022-09-20T10:46:31.999Z,19.30
2022-09-20T10:49:05.009Z,19.30
2022-09-20T10:51:47.123Z,19.60
2022-09-20T10:54:20.081Z,19.70
2022-09-20T10:56:50.412Z,19.40
2022-09-20T10:59:25.029Z,19.30
2022-09-20T11:02:02.962Z,19.10
2022-09-20T11:04:38.416Z,18.90
2022-09-20T11:07:11.432Z,18.90
2022-09-20T11:09:43.724Z,18.90
2022-09-20T11:12:10.285Z,18.90
2022-09-20T11:14:42.785Z,19.10
2022-09-20T11:17:15.712Z,19.30
2022-09-20T11:19:56.399Z,19.40
2022-09-20T11:22:38.841Z,19.00
2022-09-20T11:25:28.681Z,19.00
2022-09-20T11:28:15.109Z,19.30
2022-09-20T11:30:47.379Z,19.60
2022-09-20T11:33:18.192Z,19.80
2022-09-20T11:35:44.744Z,19.90
2022-09-20T11:38:11.324Z,20.00
2022-09-20T11:40:40.369Z,19.90
2022-09-20T11:43:08.612Z,19.70
2022-09-20T11:45:37.969Z,19.30
2022-09-20T11:48:10.244Z,19.40
2022-09-20T11:50:41.128Z,19.40
2022-09-20T11:53:21.052Z,19.30
2022-09-20T11:55:52.113Z,19.30
2022-09-20T11:58:22.386Z,19.00
2022-09-20T12:00:50.692Z,19.00
2022-09-20T12:03:32.749Z,19.00
2022-09-20T12:06:04.171Z,18.60
2022-09-20T12:08:32.379Z,18.20
2022-09-20T12:11:07.073Z,17.80
2022-09-20T12:13:37.987Z,17.50
2022-09-20T12:16:06.640Z,17.60
2022-09-20T12:18:33.300Z,17.70
2022-09-20T12:21:02.304Z,17.80
2022-09-20T12:23:42.337Z,18.40
2022-09-20T12:26:21.486Z,20.00
2022-09-20T12:28:50.003Z,21.30
2022-09-20T12:31:22.631Z,21.30
2022-09-20T12:33:57.510Z,22.10
2022-09-20T12:36:24.158Z,22.60
2022-09-20T12:39:19.072Z,23.00
2022-09-20T12:41:48.426Z,23.80
2022-09-20T12:44:24.377Z,23.90
2022-09-20T12:46:53.412Z,24.20
2022-09-20T12:49:41.378Z,23.30
2022-09-20T12:52:47.507Z,22.10
2022-09-20T12:55:41.075Z,21.10
2022-09-20T12:58:08.139Z,20.20
2022-09-20T13:00:54.238Z,19.80
2022-09-20T13:03:37.700Z,19.70
2022-09-20T13:06:04.833Z,19.70
2022-09-20T13:08:53.011Z,19.50
2022-09-20T13:11:22.346Z,19.70
2022-09-20T13:13:49.626Z,19.50
2022-09-20T13:16:22.533Z,18.90
2022-09-20T13:19:00.105Z,18.40
2022-09-20T13:21:27.867Z,17.90
2022-09-20T13:23:55.291Z,17.50
2022-09-20T13:26:30.052Z,17.40
2022-09-20T13:28:59.046Z,17.30
2022-09-20T13:31:25.686Z,17.00
2022-09-20T13:33:52.758Z,16.90
2022-09-20T13:36:24.073Z,16.70
2022-09-20T13:38:50.993Z,16.70
2022-09-20T13:41:17.993Z,16.60
2022-09-20T13:43:46.480Z,16.60
2022-09-20T13:46:18.048Z,16.60
2022-09-20T13:48:48.347Z,16.70
2022-09-20T13:51:25.540Z,16.70
2022-09-20T13:53:52.471Z,16.60
2022-09-20T13:56:29.902Z,16.70
2022-09-20T13:58:59.716Z,16.80
2022-09-20T14:01:30.795Z,16.80
2022-09-20T14:03:58.823Z,16.90
2022-09-20T14:06:29.667Z,16.60
2022-09-20T14:08:57.304Z,16.50
2022-09-20T14:11:25.439Z,16.40
2022-09-20T14:13:54.236Z,16.30
2022-09-20T14:16:22.385Z,16.40
2022-09-20T14:18:49.475Z,16.60
2022-09-20T14:21:24.089Z,16.40
2022-09-20T14:23:57.216Z,16.50
2022-09-20T14:26:33.623Z,16.60
2022-09-20T14:29:18.792Z,16.60
2022-09-20T14:31:46.929Z,16.70
2022-09-20T14:34:13.602Z,16.50
2022-09-20T14:36:40.351Z,16.40
2022-09-20T14:39:14.059Z,16.50
2022-09-20T14:41:41.711Z,16.50
2022-09-20T14:44:26.235Z,16.40
2022-09-20T14:46:54.282Z,16.40
2022-09-20T14:49:23.918Z,16.60
2022-09-20T14:51:50.934Z,16.70
2022-09-20T14:54:25.679Z,16.70
2022-09-20T14:56:57.491Z,16.70
2022-09-20T14:59:25.204Z,16.90
2022-09-20T15:01:57.170Z,16.80
2022-09-20T15:04:25.365Z,16.80
2022-09-20T15:06:52.288Z,16.70
2022-09-20T15:09:20.420Z,16.70
2022-09-20T15:11:47.313Z,16.90
2022-09-20T15:14:13.917Z,16.80
2022-09-20T15:16:40.548Z,16.90
2022-09-20T15:19:08.435Z,16.90
2022-09-20T15:21:35.090Z,16.80
2022-09-20T15:24:01.813Z,16.80
2022-09-20T15:26:28.393Z,16.80
2022-09-20T15:28:54.942Z,16.90
2022-09-20T15:31:21.544Z,17.00
2022-09-20T15:33:48.131Z,17.10
2022-09-20T15:36:14.677Z,17.00
2022-09-20T15:38:41.327Z,16.90
2022-09-20T15:41:08.210Z,16.80
2022-09-20T15:43:34.752Z,16.80
2022-09-20T15:46:16.320Z,16.80
2022-09-20T15:48:43.389Z,17.10
2022-09-20T15:51:11.292Z,17.30
2022-09-20T15:53:39.794Z,17.50
2022-09-20T15:56:20.983Z,17.60
2022-09-20T15:58:51.432Z,17.70
2022-09-20T16:01:18.651Z,17.40
2022-09-20T16:03:45.792Z,17.40
2022-09-20T16:06:13.284Z,17.40
2022-09-20T16:08:40.660Z,17.40
2022-09-20T16:11:08.425Z,17.30
2022-09-20T16:13:38.788Z,17.30
2022-09-20T16:16:07.167Z,17.40
2022-09-20T16:18:53.817Z,17.40
2022-09-20T16:21:20.856Z,17.40
2022-09-20T16:23:48.751Z,17.30
2022-09-20T16:26:15.405Z,17.20
2022-09-20T16:28:47.086Z,17.20
2022-09-20T16:31:31.084Z,17.20
2022-09-20T16:33:57.809Z,17.20
2022-09-20T16:36:27.437Z,17.30
2022-09-20T16:38:55.720Z,17.40
2022-09-20T16:41:23.418Z,17.20
2022-09-20T16:43:52.088Z,17.00
2022-09-20T16:46:22.107Z,16.80
2022-09-20T16:48:53.658Z,16.70
2022-09-20T16:51:24.592Z,16.60
2022-09-20T16:53:54.876Z,16.50
2022-09-20T16:56:25.580Z,16.50
2022-09-20T16:58:52.809Z,16.40
2022-09-20T17:01:19.785Z,16.50
2022-09-20T17:03:47.099Z,16.40
2022-09-20T17:06:14.694Z,16.30
2022-09-20T17:08:41.962Z,16.20
2022-09-20T17:11:10.785Z,16.10
2022-09-20T17:13:39.516Z,16.10
2022-09-20T17:16:08.961Z,16.10
2022-09-20T17:18:35.771Z,16.00
2022-09-20T17:21:06.208Z,16.00
2022-09-20T17:23:36.520Z,15.90
2022-09-20T17:26:07.543Z,15.90
2022-09-20T17:28:35.323Z,15.90
2022-09-20T17:31:01.976Z,16.00
2022-09-20T17:33:31.063Z,15.90
2022-09-20T17:36:01.450Z,15.90
2022-09-20T17:38:28.520Z,15.90
2022-09-20T17:40:58.711Z,15.80
2022-09-20T17:43:27.107Z,15.80
2022-09-20T17:45:53.717Z,15.70
2022-09-20T17:48:23.053Z,16.00
2022-09-20T17:50:56.153Z,16.10
2022-09-20T17:53:22.718Z,16.10
2022-09-20T17:55:59.589Z,16.10
2022-09-20T17:58:26.847Z,16.10
2022-09-20T18:00:58.358Z,16.00
2022-09-20T18:03:24.997Z,15.80
2022-09-20T18:05:51.965Z,15.80
2022-09-20T18:08:18.995Z,15.70
2022-09-20T18:10:55.927Z,15.70
2022-09-20T18:13:22.789Z,15.60
2022-09-20T18:15:49.485Z,15.60
2022-09-20T18:18:16.087Z,15.70
2022-09-20T18:20:42.625Z,15.70
2022-09-20T18:23:09.163Z,15.70
2022-09-20T18:25:55.707Z,15.80
2022-09-20T18:28:22.409Z,15.70
2022-09-20T18:30:58.871Z,15.80
2022-09-20T18:33:26.340Z,15.80
2022-09-20T18:35:52.893Z,15.50
2022-09-20T18:38:19.531Z,15.40
2022-09-20T18:40:53.691Z,15.40
2022-09-20T18:43:20.253Z,15.30
2022-09-20T18:45:54.242Z,15.30
2022-09-20T18:48:22.923Z,15.30
2022-09-20T18:51:02.678Z,15.30
2022-09-20T18:53:30.094Z,15.20
2022-09-20T18:55:57.042Z,15.20
2022-09-20T18:58:24.048Z,15.10
2022-09-20T19:00:55.765Z,14.90
2022-09-20T19:03:32.640Z,14.70
2022-09-20T19:06:04.031Z,14.50
2022-09-20T19:08:38.154Z,14.50
2022-09-20T19:11:09.607Z,14.50
2022-09-20T19:13:51.870Z,14.70
2022-09-20T19:16:21.547Z,14.50
2022-09-20T19:19:06.215Z,14.50
2022-09-20T19:21:54.944Z,14.50
2022-09-20T19:24:39.310Z,14.40
2022-09-20T19:27:05.970Z,14.40
2022-09-20T19:29:33.171Z,14.40
2022-09-20T19:32:00.834Z,14.30
2022-09-20T19:34:30.156Z,14.10
2022-09-20T19:37:18.777Z,14.00
2022-09-20T19:39:51.405Z,14.00
2022-09-20T19:42:31.321Z,14.10
2022-09-20T19:45:16.344Z,14.20
2022-09-20T19:48:02.990Z,14.20
2022-09-20T19:50:33.213Z,14.30
2022-09-20T19:53:04.136Z,14.20
2022-09-20T19:55:31.504Z,14.10
2022-09-20T19:57:58.417Z,14.10
2022-09-20T20:00:25.296Z,14.00
2022-09-20T20:02:52.444Z,14.00
2022-09-20T20:05:20.489Z,14.00
2022-09-20T20:07:59.472Z,14.10
2022-09-20T20:10:26.017Z,14.00
2022-09-20T20:13:03.025Z,14.00
2022-09-20T20:15:50.482Z,13.80
2022-09-20T20:18:39.920Z,13.50
2022-09-20T20:21:12.580Z,13.50
2022-09-20T20:23:57.935Z,13.50
2022-09-20T20:26:25.481Z,13.40
2022-09-20T20:28:52.647Z,13.30
2022-09-20T20:31:19.680Z,13.30
2022-09-20T20:33:46.278Z,13.30
2022-09-20T20:36:12.859Z,13.30
2022-09-20T20:38:40.364Z,13.30
2022-09-20T20:41:11.031Z,13.20
2022-09-20T20:43:38.598Z,13.20
2022-09-20T20:46:07.078Z,13.20
2022-09-20T20:48:33.724Z,13.20
2022-09-20T20:51:00.705Z,13.00
2022-09-20T20:53:35.311Z,12.80
2022-09-20T20:56:03.413Z,12.70
2022-09-20T20:58:32.411Z,12.60
2022-09-20T21:01:08.740Z,12.50
2022-09-20T21:03:35.745Z,12.50
2022-09-20T21:06:04.399Z,12.50
2022-09-20T21:08:32.248Z,12.30
2022-09-20T21:11:07.140Z,12.20
2022-09-20T21:13:35.242Z,12.10
2022-09-20T21:16:06.160Z,12.00
2022-09-20T21:18:33.599Z,12.00
2022-09-20T21:21:00.904Z,12.00
2022-09-20T21:23:32.059Z,11.90
2022-09-20T21:26:07.678Z,12.00
2022-09-20T21:28:38.004Z,12.10
2022-09-20T21:31:05.892Z,12.20
2022-09-20T21:33:36.404Z,12.30
2022-09-20T21:36:03.933Z,12.20
2022-09-20T21:38:33.752Z,12.10
2022-09-20T21:41:03.967Z,12.10
2022-09-20T21:43:30.980Z,12.20
2022-09-20T21:45:58.675Z,12.20
2022-09-20T21:48:26.717Z,12.20
2022-09-20T21:50:59.430Z,12.20
2022-09-20T21:53:26.114Z,12.30
2022-09-20T21:55:57.176Z,12.20
2022-09-20T21:58:23.972Z,12.00
2022-09-20T22:00:57.207Z,12.00
2022-09-20T22:03:24.189Z,12.00
2022-09-20T22:05:50.759Z,11.90
2022-09-20T22:08:17.404Z,11.90
2022-09-20T22:10:44.073Z,11.90
2022-09-20T22:13:10.689Z,11.90
2022-09-20T22:15:37.757Z,11.90
2022-09-20T22:18:05.905Z,12.00
2022-09-20T22:20:32.738Z,11.90
2022-09-20T22:23:00.394Z,11.90
2022-09-20T22:25:27.324Z,11.80
2022-09-20T22:27:54.288Z,11.90
2022-09-20T22:30:20.924Z,11.90
2022-09-20T22:32:48.010Z,11.70
2022-09-20T22:35:15.063Z,11.70
2022-09-20T22:37:42.135Z,11.50
2022-09-20T22:40:09.300Z,11.40
2022-09-20T22:42:36.165Z,11.20
2022-09-20T22:45:03.332Z,11.10
2022-09-20T22:47:30.295Z,11.00
2022-09-20T22:49:58.135Z,10.90
2022-09-20T22:52:25.185Z,10.90
2022-09-20T22:54:52.279Z,10.70
2022-09-20T22:57:19.287Z,10.70
2022-09-20T22:59:46.324Z,10.70
2022-09-20T23:02:16.311Z,10.70
2022-09-20T23:04:43.308Z,10.90
2022-09-20T23:07:10.344Z,10.90
2022-09-20T23:09:37.699Z,11.10
2022-09-20T23:12:04.479Z,11.00
2022-09-20T23:14:31.574Z,11.00
2022-09-20T23:16:58.612Z,11.10
2022-09-20T23:19:26.382Z,11.10
2022-09-20T23:21:53.467Z,11.10
2022-09-20T23:24:20.518Z,11.20
2022-09-20T23:26:47.532Z,11.10
2022-09-20T23:29:15.389Z,11.10
2022-09-20T23:31:46.083Z,11.00
2022-09-20T23:34:14.158Z,10.90
2022-09-20T23:36:41.097Z,11.00
2022-09-20T23:39:08.726Z,11.00
2022-09-20T23:41:36.734Z,11.10
2022-09-20T23:44:06.229Z,11.20
2022-09-20T23:46:33.452Z,11.00
2022-09-20T23:49:00.475Z,10.80
2022-09-20T23:51:28.505Z,10.80
2022-09-20T23:53:56.113Z,10.60
2022-09-20T23:56:23.768Z,10.50
2022-09-20T23:58:50.825Z,10.50
